Fort William, United Kingdom
Current Conditions -  °F | °C
As of 10:50 AM on Thursday 27 Nov 2014 (Local Time) from EGPE Reporting Station
Moderate Fog Moderate Fog  
Wind Chill: 39°   Ceiling: Unl
Heat Index: 39°   Visibility: 6mi
Dew Point: 39°   Wind: 3mph
Humidity: 100%   Direction: 240°WSW
Pressure: 29.68"   Gusts: NA
Location:  56.82°N, 5.11°W
Report Text: EGPE 271050Z 24003KT 9999 5000S VCFG FEW002 SCT048 04/04 Q1005
Loading
Personal Weather Stations






























Interactive Weather Map New forecast layout! Learn more

10-Day Weather Forecast

Advertisements
Track Severe Weather on mobile